createdAt,value
2022-12-23T00:00:11.479Z,45.60
2022-12-23T00:00:49.027Z,49.70
2022-12-23T00:01:21.335Z,50.47
2022-12-23T00:01:56.220Z,46.85
2022-12-23T00:02:29.836Z,46.55
2022-12-23T00:03:02.322Z,48.13
2022-12-23T00:03:35.327Z,46.03
2022-12-23T00:04:11.214Z,45.78
2022-12-23T00:04:43.609Z,44.45
2022-12-23T00:05:15.853Z,45.45
2022-12-23T00:05:50.523Z,42.22
2022-12-23T00:06:22.646Z,46.85
2022-12-23T00:06:57.333Z,51.08
2022-12-23T00:07:29.459Z,46.75
2022-12-23T00:08:01.546Z,42.53
2022-12-23T00:08:37.625Z,48.90
2022-12-23T00:09:09.690Z,44.22
2022-12-23T00:09:41.798Z,47.22
2022-12-23T00:10:16.479Z,47.17
2022-12-23T00:10:49.577Z,47.22
2022-12-23T00:11:21.699Z,46.28
2022-12-23T00:12:08.858Z,47.40
2022-12-23T00:13:01.563Z,44.67
2022-12-23T00:13:48.676Z,47.08
2022-12-23T00:14:35.846Z,40.75
2022-12-23T00:15:11.830Z,44.03
2022-12-23T00:15:46.578Z,45.28
2022-12-23T00:16:18.751Z,41.40
2022-12-23T00:16:53.667Z,47.60
2022-12-23T00:17:26.116Z,43.28
2022-12-23T00:17:58.191Z,50.45
2022-12-23T00:18:30.485Z,41.63
2022-12-23T00:19:05.223Z,39.20
2022-12-23T00:19:37.312Z,47.58
2022-12-23T00:20:12.325Z,42.50
2022-12-23T00:20:44.374Z,51.55
2022-12-23T00:21:20.225Z,46.90
2022-12-23T00:21:52.309Z,45.88
2022-12-23T00:22:44.409Z,49.92
2022-12-23T00:23:19.072Z,46.85
2022-12-23T00:23:52.211Z,43.60
2022-12-23T00:24:24.470Z,40.55
2022-12-23T00:24:59.145Z,43.97
2022-12-23T00:25:45.023Z,45.67
2022-12-23T00:26:21.992Z,42.38
2022-12-23T00:26:54.763Z,43.15
2022-12-23T00:27:29.656Z,46.55
2022-12-23T00:28:03.929Z,41.72
2022-12-23T00:28:38.588Z,48.85
2022-12-23T00:29:10.678Z,45.53
2022-12-23T00:29:42.784Z,41.45
2022-12-23T00:30:17.643Z,47.65
2022-12-23T00:30:54.285Z,41.97
2022-12-23T00:31:29.305Z,45.92
2022-12-23T00:32:01.550Z,38.10
2022-12-23T00:32:33.736Z,40.33
2022-12-23T00:33:06.064Z,46.75
2022-12-23T00:33:42.422Z,41.00
2022-12-23T00:34:14.622Z,39.45
2022-12-23T00:34:46.852Z,39.05
2022-12-23T00:35:21.540Z,40.78
2022-12-23T00:35:54.296Z,39.97
2022-12-23T00:36:31.919Z,40.85
2022-12-23T00:37:04.070Z,46.35
2022-12-23T00:37:36.156Z,43.30
2022-12-23T00:38:08.314Z,41.40
2022-12-23T00:38:55.512Z,35.58
2022-12-23T00:39:42.676Z,49.17
2022-12-23T00:40:30.726Z,43.35
2022-12-23T00:41:17.918Z,41.13
2022-12-23T00:42:05.068Z,47.40
2022-12-23T00:42:52.193Z,39.83
2022-12-23T00:43:27.106Z,39.38
2022-12-23T00:43:59.382Z,42.28
2022-12-23T00:44:31.820Z,39.05
2022-12-23T00:45:18.099Z,44.30
2022-12-23T00:45:53.123Z,42.15
2022-12-23T00:46:25.491Z,39.65
2022-12-23T00:47:00.575Z,39.78
2022-12-23T00:47:47.701Z,42.38
2022-12-23T00:48:34.855Z,43.53
2022-12-23T00:49:22.401Z,37.65
2022-12-23T00:49:54.499Z,38.78
2022-12-23T00:50:27.442Z,39.47
2022-12-23T00:51:02.196Z,40.97
2022-12-23T00:51:34.487Z,45.30
2022-12-23T00:52:09.218Z,36.60
2022-12-23T00:52:41.339Z,41.72
2022-12-23T00:53:16.079Z,39.88
2022-12-23T00:53:48.161Z,41.58
2022-12-23T00:54:20.406Z,39.60
2022-12-23T00:54:55.106Z,46.30
2022-12-23T00:55:27.338Z,43.90
2022-12-23T00:55:59.443Z,40.35
2022-12-23T00:56:34.509Z,39.92
2022-12-23T00:57:06.885Z,48.95
2022-12-23T00:57:38.944Z,40.45
2022-12-23T00:58:13.628Z,44.70
2022-12-23T00:58:45.727Z,40.92
2022-12-23T00:59:17.924Z,38.70
2022-12-23T00:59:52.615Z,43.45
2022-12-23T01:00:47.643Z,42.17
2022-12-23T01:01:37.794Z,39.75
2022-12-23T01:02:26.481Z,39.95
2022-12-23T01:03:13.865Z,38.90
2022-12-23T01:04:01.075Z,39.53
2022-12-23T01:04:48.382Z,40.90
2022-12-23T01:05:35.896Z,39.65
2022-12-23T01:06:10.663Z,38.40
2022-12-23T01:06:42.807Z,48.05
2022-12-23T01:07:14.993Z,38.55
2022-12-23T01:07:49.655Z,40.45
2022-12-23T01:08:21.756Z,37.38
2022-12-23T01:08:53.868Z,37.30
2022-12-23T01:09:29.004Z,40.50
2022-12-23T01:10:01.136Z,39.50
2022-12-23T01:10:34.905Z,42.90
2022-12-23T01:11:11.391Z,38.50
2022-12-23T01:11:43.518Z,35.97
2022-12-23T01:12:15.767Z,36.70
2022-12-23T01:12:50.501Z,38.53
2022-12-23T01:13:22.665Z,38.47
2022-12-23T01:13:54.751Z,39.58
2022-12-23T01:14:29.642Z,37.78
2022-12-23T01:15:01.854Z,37.25
2022-12-23T01:15:34.348Z,38.83
2022-12-23T01:16:13.481Z,38.83
2022-12-23T01:16:54.342Z,45.95
2022-12-23T01:17:26.547Z,41.33
2022-12-23T01:17:58.976Z,37.42
2022-12-23T01:18:33.721Z,44.63
2022-12-23T01:19:06.018Z,35.22
2022-12-23T01:19:38.468Z,40.67
2022-12-23T01:20:12.109Z,40.88
2022-12-23T01:20:46.828Z,41.28
2022-12-23T01:21:18.927Z,35.08
2022-12-23T01:21:51.051Z,39.92
2022-12-23T01:22:25.720Z,35.30
2022-12-23T01:22:57.813Z,38.50
2022-12-23T01:23:30.146Z,33.42
2022-12-23T01:24:05.192Z,40.10
2022-12-23T01:24:37.377Z,37.22
2022-12-23T01:25:10.208Z,33.45
2022-12-23T01:25:44.874Z,38.35
2022-12-23T01:26:17.034Z,38.83
2022-12-23T01:26:49.210Z,34.42
2022-12-23T01:27:23.957Z,37.60
2022-12-23T01:27:56.072Z,35.33
2022-12-23T01:28:29.239Z,33.53
2022-12-23T01:29:05.065Z,37.15
2022-12-23T01:29:37.155Z,34.22
2022-12-23T01:30:10.315Z,38.40
2022-12-23T01:30:44.995Z,35.95
2022-12-23T01:31:17.106Z,39.53
2022-12-23T01:31:52.040Z,39.60
2022-12-23T01:32:26.749Z,38.67
2022-12-23T01:32:58.844Z,40.28
2022-12-23T01:33:32.272Z,34.42
2022-12-23T01:34:07.058Z,37.13
2022-12-23T01:34:39.202Z,36.40
2022-12-23T01:35:11.322Z,33.38
2022-12-23T01:35:46.120Z,37.85
2022-12-23T01:36:18.702Z,46.65
2022-12-23T01:36:50.832Z,37.70
2022-12-23T01:37:25.854Z,35.22
2022-12-23T01:37:57.935Z,38.22
2022-12-23T01:38:30.497Z,38.72
2022-12-23T01:39:05.208Z,34.75
2022-12-23T01:39:37.326Z,35.38
2022-12-23T01:40:10.483Z,41.63
2022-12-23T01:40:47.509Z,38.30
2022-12-23T01:41:37.174Z,36.67
2022-12-23T01:42:28.199Z,39.13
2022-12-23T01:43:00.319Z,33.08
2022-12-23T01:43:46.614Z,36.22
2022-12-23T01:45:04.383Z,38.25
2022-12-23T01:45:36.540Z,36.35
2022-12-23T01:46:08.695Z,40.85
2022-12-23T01:46:43.455Z,35.30
2022-12-23T01:47:22.587Z,41.75
2022-12-23T01:48:00.402Z,33.70
2022-12-23T01:48:32.488Z,29.67
2022-12-23T01:49:04.587Z,41.70
2022-12-23T01:49:39.495Z,35.03
2022-12-23T01:50:14.958Z,34.78
2022-12-23T01:50:54.292Z,38.97
2022-12-23T01:51:29.200Z,38.08
2022-12-23T01:52:01.368Z,42.33
2022-12-23T01:52:38.872Z,41.13
2022-12-23T01:53:15.340Z,34.75
2022-12-23T01:53:50.590Z,32.47
2022-12-23T01:54:25.282Z,34.67
2022-12-23T01:54:57.956Z,36.03
2022-12-23T01:55:35.930Z,38.58
2022-12-23T01:56:12.212Z,33.70
2022-12-23T01:56:44.454Z,39.10
2022-12-23T01:57:19.419Z,38.30
2022-12-23T01:57:53.396Z,39.10
2022-12-23T01:58:33.291Z,34.90
2022-12-23T01:59:08.994Z,33.45
2022-12-23T01:59:57.304Z,36.55
2022-12-23T02:00:53.163Z,29.23
2022-12-23T02:01:40.538Z,33.47
2022-12-23T02:02:27.920Z,35.60
2022-12-23T02:04:07.687Z,33.10
2022-12-23T02:04:40.069Z,31.35
2022-12-23T02:05:12.612Z,35.38
2022-12-23T02:05:46.010Z,37.80
2022-12-23T02:06:37.329Z,38.17
2022-12-23T02:07:26.327Z,35.05
2022-12-23T02:08:13.545Z,31.77
2022-12-23T02:09:00.628Z,31.45
2022-12-23T02:09:37.068Z,31.20
2022-12-23T02:10:10.236Z,33.05
2022-12-23T02:11:01.110Z,32.03
2022-12-23T02:11:55.839Z,35.03
2022-12-23T02:12:41.943Z,29.10
2022-12-23T02:13:24.117Z,31.73
2022-12-23T02:14:29.426Z,34.80
2022-12-23T02:15:53.091Z,35.88
2022-12-23T02:16:25.993Z,36.58
2022-12-23T02:17:05.988Z,32.35
2022-12-23T02:17:53.515Z,32.55
2022-12-23T02:18:47.027Z,34.53
2022-12-23T02:19:41.080Z,34.45
2022-12-23T02:20:46.135Z,36.92
2022-12-23T02:21:44.843Z,31.45
2022-12-23T02:22:34.011Z,41.83
2022-12-23T02:23:35.605Z,32.88
2022-12-23T02:24:37.686Z,33.63
2022-12-23T02:25:45.973Z,33.50
2022-12-23T02:26:41.579Z,33.03
2022-12-23T02:27:19.989Z,35.97
2022-12-23T02:28:08.872Z,32.80
2022-12-23T02:29:09.645Z,35.80
2022-12-23T02:30:43.421Z,34.72
2022-12-23T02:31:24.186Z,35.13
2022-12-23T08:13:56.032Z,47.80
2022-12-23T08:14:28.186Z,48.63
2022-12-23T08:15:02.919Z,49.25
2022-12-23T08:15:34.994Z,67.25
2022-12-23T08:16:08.605Z,46.83
2022-12-23T08:16:44.291Z,50.72
2022-12-23T08:17:16.718Z,53.65
2022-12-23T08:17:48.918Z,45.15
2022-12-23T08:18:23.573Z,66.88
2022-12-23T08:18:55.713Z,54.83
2022-12-23T08:19:30.381Z,50.25
2022-12-23T08:20:02.578Z,58.28
2022-12-23T08:20:34.650Z,46.63
2022-12-23T08:21:11.634Z,51.60
2022-12-23T08:21:43.691Z,58.45
2022-12-23T08:22:16.004Z,52.63
2022-12-23T08:22:50.736Z,45.13
2022-12-23T08:23:25.101Z,44.45
2022-12-23T08:23:57.587Z,40.90
2022-12-23T08:24:32.344Z,48.38
2022-12-23T08:25:05.266Z,57.40
2022-12-23T08:25:37.392Z,51.97
2022-12-23T08:26:14.222Z,58.75
2022-12-23T08:26:46.281Z,62.22
2022-12-23T08:27:21.033Z,62.55
2022-12-23T08:27:53.110Z,52.97
2022-12-23T08:28:25.316Z,49.85
2022-12-23T08:29:03.551Z,48.25
2022-12-23T08:29:36.629Z,54.47
2022-12-23T08:30:10.513Z,66.60
2022-12-23T08:30:45.345Z,68.43
2022-12-23T08:31:20.376Z,62.63
2022-12-23T08:31:54.215Z,58.03
2022-12-23T08:32:29.876Z,66.47
2022-12-23T08:33:01.974Z,55.00
2022-12-23T08:33:35.040Z,61.08
2022-12-23T08:34:10.699Z,49.00
2022-12-23T08:34:42.850Z,49.70
2022-12-23T08:35:14.980Z,53.97
2022-12-23T08:35:49.787Z,48.60
2022-12-23T08:36:23.920Z,54.85
2022-12-23T08:36:56.145Z,56.38
2022-12-23T08:37:30.799Z,51.70
2022-12-23T08:38:02.859Z,61.40
2022-12-23T08:38:35.605Z,58.15
2022-12-23T08:39:13.075Z,64.38
2022-12-23T08:39:45.267Z,70.97
2022-12-23T08:40:19.978Z,75.53
2022-12-23T08:41:01.074Z,74.72
2022-12-23T08:41:39.109Z,77.05
2022-12-23T08:42:11.273Z,57.97
2022-12-23T08:42:45.995Z,62.47
2022-12-23T08:43:18.063Z,56.65
2022-12-23T08:43:50.653Z,52.75
2022-12-23T08:44:28.672Z,53.50
2022-12-23T08:45:01.188Z,51.95
2022-12-23T08:45:37.330Z,82.22
2022-12-23T08:46:12.568Z,73.18
2022-12-23T08:46:45.559Z,63.33
2022-12-23T08:47:20.318Z,52.55
2022-12-23T08:47:52.537Z,52.33
2022-12-23T08:48:24.777Z,52.67
2022-12-23T08:48:59.795Z,52.33
2022-12-23T08:49:31.920Z,48.50
2022-12-23T08:50:04.766Z,103.22
2022-12-23T08:50:43.721Z,56.83
2022-12-23T08:51:17.850Z,64.53
2022-12-23T08:51:50.087Z,70.13
2022-12-23T08:52:24.750Z,52.20
2022-12-23T08:52:56.826Z,50.42
2022-12-23T08:53:29.253Z,48.10
2022-12-23T08:54:04.190Z,53.08
2022-12-23T08:54:36.321Z,63.25
2022-12-23T08:55:11.727Z,55.38
2022-12-23T08:55:47.015Z,52.78
2022-12-23T08:56:24.186Z,56.03
2022-12-23T08:56:56.376Z,45.58
2022-12-23T08:57:28.459Z,56.75
2022-12-23T08:58:03.105Z,54.10
2022-12-23T08:58:38.314Z,72.05
2022-12-23T08:59:19.637Z,73.53
2022-12-23T08:59:54.805Z,62.03
2022-12-23T09:00:27.167Z,71.38
2022-12-23T09:01:06.180Z,85.70
2022-12-23T09:01:38.357Z,62.38
2022-12-23T09:02:14.556Z,60.03
2022-12-23T09:02:47.080Z,54.42
2022-12-23T09:03:19.451Z,62.58
2022-12-23T09:03:55.120Z,65.90
2022-12-23T09:04:27.314Z,60.95
2022-12-23T09:05:02.043Z,61.90
2022-12-23T09:05:38.972Z,65.40
2022-12-23T09:06:16.416Z,73.70
2022-12-23T09:06:48.523Z,76.35
2022-12-23T09:07:23.187Z,88.90
2022-12-23T09:07:55.300Z,78.10
2022-12-23T09:08:27.478Z,50.75
2022-12-23T09:09:02.338Z,82.90
2022-12-23T09:09:34.450Z,59.60
2022-12-23T09:10:10.635Z,77.80
2022-12-23T09:10:43.657Z,86.40
2022-12-23T09:11:20.515Z,90.28
2022-12-23T09:11:52.576Z,71.75
2022-12-23T09:12:24.691Z,85.60
2022-12-23T09:12:59.383Z,97.55
2022-12-23T09:13:35.563Z,119.53
2022-12-23T09:14:10.276Z,107.93
2022-12-23T09:14:47.745Z,85.40
2022-12-23T09:15:22.541Z,69.93
2022-12-23T09:15:55.144Z,77.97
2022-12-23T09:16:30.729Z,59.30
2022-12-23T09:17:02.920Z,59.38
2022-12-23T09:17:37.838Z,64.57
2022-12-23T09:18:10.328Z,73.03
2022-12-23T09:18:42.590Z,69.43
2022-12-23T09:19:17.336Z,76.57
2022-12-23T09:19:53.022Z,69.97
2022-12-23T09:20:25.457Z,75.75
2022-12-23T09:21:01.575Z,71.70
2022-12-23T09:21:33.936Z,57.90
2022-12-23T09:22:06.057Z,75.53
2022-12-23T09:22:40.856Z,73.68
2022-12-23T09:23:13.167Z,74.60
2022-12-23T09:23:45.475Z,71.15
2022-12-23T09:24:20.185Z,86.32
2022-12-23T09:24:52.245Z,92.13
2022-12-23T09:25:24.391Z,84.75
2022-12-23T09:25:59.267Z,79.20
2022-12-23T09:26:32.467Z,84.45
2022-12-23T09:27:04.724Z,82.55
2022-12-23T09:27:39.445Z,78.88
2022-12-23T09:28:12.024Z,81.18
2022-12-23T09:28:44.091Z,74.15
2022-12-23T09:29:18.753Z,61.88
2022-12-23T09:29:51.069Z,53.85
2022-12-23T09:30:25.758Z,68.10
2022-12-23T09:31:00.580Z,62.22
2022-12-23T09:31:37.159Z,72.15
2022-12-23T09:32:12.489Z,66.55
2022-12-23T09:32:44.616Z,52.53
2022-12-23T09:33:19.886Z,45.70
2022-12-23T09:33:53.857Z,85.75
2022-12-23T09:34:26.761Z,58.08
2022-12-23T09:35:01.516Z,49.28
2022-12-23T09:35:33.596Z,54.85
2022-12-23T09:36:06.641Z,49.55
2022-12-23T09:36:41.400Z,46.58
2022-12-23T09:37:16.587Z,41.30
2022-12-23T09:37:51.264Z,57.15
2022-12-23T09:38:23.346Z,47.63
2022-12-23T09:38:56.325Z,52.17
2022-12-23T09:39:31.146Z,56.35
2022-12-23T09:40:04.334Z,57.72
2022-12-23T09:40:41.784Z,50.63
2022-12-23T09:41:27.433Z,41.55
2022-12-23T09:42:09.979Z,47.50
2022-12-23T09:42:57.565Z,40.65
2022-12-23T09:43:42.539Z,47.03
2022-12-23T09:44:43.278Z,44.55
2022-12-23T09:46:06.981Z,54.92
2022-12-23T09:46:48.132Z,65.25
2022-12-23T09:47:23.376Z,57.05
2022-12-23T09:47:59.400Z,63.80
2022-12-23T09:48:36.424Z,49.72
2022-12-23T09:49:16.636Z,59.03
2022-12-23T09:49:53.427Z,57.38
2022-12-23T09:50:28.873Z,44.55
2022-12-23T09:51:05.707Z,68.25
2022-12-23T09:51:38.469Z,61.78
2022-12-23T09:52:16.731Z,69.85
2022-12-23T09:53:00.014Z,61.58
2022-12-23T09:53:45.262Z,58.28
2022-12-23T09:54:24.074Z,51.40
2022-12-23T09:54:56.571Z,58.97
2022-12-23T09:55:38.116Z,61.70
2022-12-23T09:56:22.473Z,49.03
2022-12-23T09:56:58.604Z,53.90
2022-12-23T09:57:43.253Z,54.22
2022-12-23T09:58:23.397Z,52.25
2022-12-23T09:59:06.143Z,58.65
2022-12-23T09:59:51.665Z,61.08
2022-12-23T10:00:27.125Z,57.53
2022-12-23T10:01:14.048Z,56.70
2022-12-23T10:01:55.236Z,77.93
2022-12-23T10:02:39.580Z,62.42
2022-12-23T10:03:23.400Z,65.32
2022-12-23T10:04:32.143Z,67.32
2022-12-23T10:05:15.062Z,57.72
2022-12-23T10:05:59.237Z,59.08
2022-12-23T10:06:37.147Z,58.53
2022-12-23T10:07:23.908Z,59.58
2022-12-23T10:08:04.536Z,60.00
2022-12-23T10:08:40.454Z,50.45
2022-12-23T10:09:17.619Z,72.40
2022-12-23T10:09:53.291Z,85.38
2022-12-23T10:10:35.405Z,50.97
2022-12-23T10:11:14.340Z,74.28
2022-12-23T10:11:53.420Z,79.43
2022-12-23T10:12:39.777Z,73.45
2022-12-23T10:13:27.997Z,47.67
2022-12-23T10:14:03.290Z,86.97
2022-12-23T10:14:39.402Z,76.68
2022-12-23T10:15:20.920Z,48.47
2022-12-23T10:15:59.020Z,67.30
2022-12-23T10:16:39.354Z,93.47
2022-12-23T10:17:18.938Z,103.65
2022-12-23T10:17:55.725Z,55.13
2022-12-23T10:18:43.774Z,83.35
2022-12-23T10:19:21.318Z,80.63
2022-12-23T10:20:00.437Z,75.43
2022-12-23T10:20:39.921Z,72.95
2022-12-23T10:21:19.394Z,60.35
2022-12-23T10:21:55.420Z,54.45
2022-12-23T10:22:38.507Z,56.65
2022-12-23T10:23:17.115Z,72.35
2022-12-23T10:23:55.276Z,82.65
2022-12-23T10:24:33.702Z,70.95
2022-12-23T10:25:14.231Z,42.60
2022-12-23T10:25:53.723Z,65.75
2022-12-23T10:26:32.265Z,54.72
2022-12-23T10:27:14.721Z,62.80
2022-12-23T10:27:46.843Z,81.60
2022-12-23T10:28:19.197Z,66.35
2022-12-23T10:29:01.615Z,82.45
2022-12-23T10:29:34.681Z,65.72
2022-12-23T10:30:34.213Z,66.43
2022-12-23T10:31:39.407Z,70.68
2022-12-23T10:32:22.762Z,72.30
2022-12-23T10:33:06.733Z,61.03
2022-12-23T10:33:46.959Z,54.97
2022-12-23T10:34:29.969Z,70.40
2022-12-23T10:35:11.821Z,73.68
2022-12-23T10:35:54.370Z,67.10
2022-12-23T10:36:34.299Z,87.63
2022-12-23T10:37:14.761Z,83.55
2022-12-23T10:38:42.753Z,83.65
2022-12-23T10:39:25.039Z,59.05
2022-12-23T10:40:12.268Z,45.15
2022-12-23T10:40:52.644Z,59.70
2022-12-23T10:42:18.090Z,56.03
2022-12-23T10:43:01.592Z,54.65
2022-12-23T10:43:45.952Z,48.45
2022-12-23T10:44:39.243Z,58.50
2022-12-23T10:45:29.024Z,53.00
2022-12-23T10:46:13.285Z,57.30
2022-12-23T10:46:56.281Z,76.95
2022-12-23T10:47:48.529Z,64.60
2022-12-23T10:48:34.489Z,60.17
2022-12-23T10:49:18.724Z,72.50
2022-12-23T10:50:02.558Z,50.75
2022-12-23T10:50:56.788Z,51.40
2022-12-23T10:51:32.502Z,73.95
2022-12-23T10:52:12.138Z,71.78
2022-12-23T10:52:49.061Z,53.22
2022-12-23T10:53:31.316Z,71.32
2022-12-23T10:54:12.604Z,89.78
2022-12-23T10:54:46.499Z,90.10
2022-12-23T10:55:26.124Z,106.90
2022-12-23T10:56:04.315Z,96.85
2022-12-23T10:56:37.276Z,96.95
2022-12-23T10:57:12.438Z,124.88
2022-12-23T10:57:44.632Z,80.75
2022-12-23T10:58:18.575Z,64.45
2022-12-23T10:58:57.898Z,104.18
2022-12-23T10:59:34.987Z,94.97
2022-12-23T11:00:20.951Z,54.15
2022-12-23T11:00:55.376Z,115.65
2022-12-23T11:01:32.006Z,66.90
2022-12-23T11:02:22.696Z,86.72
2022-12-23T11:03:46.427Z,77.53
2022-12-23T11:04:28.425Z,131.95
2022-12-23T11:05:00.601Z,110.15
2022-12-23T11:05:34.609Z,100.30
2022-12-23T11:06:11.344Z,102.63
2022-12-23T11:06:46.749Z,112.22
2022-12-23T11:08:17.199Z,87.28
2022-12-23T11:08:50.283Z,92.22
2022-12-23T11:09:27.962Z,64.60
2022-12-23T11:10:04.972Z,110.05
2022-12-23T11:10:37.568Z,111.03
2022-12-23T11:11:12.296Z,76.63
2022-12-23T11:11:59.979Z,67.50
2022-12-23T11:12:43.814Z,97.40
2022-12-23T11:13:25.897Z,48.78
2022-12-23T11:14:00.563Z,58.55
2022-12-23T11:14:38.337Z,73.95
2022-12-23T11:15:26.880Z,59.50
2022-12-23T11:16:15.069Z,52.08
2022-12-23T11:16:47.300Z,52.95
2022-12-23T11:17:25.340Z,56.97
2022-12-23T11:18:05.818Z,63.08
2022-12-23T11:19:16.018Z,59.35
2022-12-23T11:19:48.642Z,62.25
2022-12-23T11:20:23.725Z,62.30
2022-12-23T11:21:04.234Z,70.03
2022-12-23T11:22:22.598Z,39.83
2022-12-23T11:23:01.824Z,51.92
2022-12-23T11:23:36.811Z,71.75
2022-12-23T11:24:23.168Z,57.78
2022-12-23T11:24:55.408Z,66.32
2022-12-23T11:25:31.196Z,49.80
2022-12-23T11:26:09.160Z,76.15
2022-12-23T11:26:41.453Z,57.72
2022-12-23T11:27:18.840Z,65.30
2022-12-23T11:27:53.380Z,48.97
2022-12-23T11:28:28.417Z,63.88
2022-12-23T11:29:07.271Z,67.28
2022-12-23T11:29:47.693Z,94.03
2022-12-23T11:30:20.266Z,72.65
2022-12-23T11:30:58.495Z,74.78
2022-12-23T11:31:35.373Z,73.15
2022-12-23T11:32:19.850Z,59.42
2022-12-23T11:32:52.189Z,55.97
2022-12-23T11:33:32.667Z,58.45
2022-12-23T11:34:07.463Z,57.47
2022-12-23T11:34:42.309Z,52.72
2022-12-23T11:35:25.916Z,57.75
2022-12-23T11:36:03.456Z,59.65
2022-12-23T11:36:38.311Z,68.43
2022-12-23T11:37:25.095Z,52.95
2022-12-23T11:38:01.338Z,58.10
2022-12-23T11:38:35.374Z,77.68
2022-12-23T11:39:25.739Z,48.13
2022-12-23T11:39:57.922Z,64.63
2022-12-23T11:40:35.369Z,73.18
2022-12-23T11:41:08.372Z,55.22
2022-12-23T11:41:44.213Z,42.10
2022-12-23T11:42:23.155Z,49.35
2022-12-23T11:42:58.861Z,52.75
2022-12-23T11:43:32.704Z,54.95
2022-12-23T11:44:13.036Z,67.53
2022-12-23T11:45:25.575Z,59.35
2022-12-23T11:46:25.482Z,50.83
2022-12-23T11:47:00.847Z,58.40
2022-12-23T11:47:38.093Z,57.97
2022-12-23T11:48:32.910Z,52.88
2022-12-23T11:49:16.389Z,57.35
2022-12-23T11:49:52.715Z,91.47
2022-12-23T11:50:31.721Z,83.60
2022-12-23T11:51:07.223Z,75.03
2022-12-23T11:51:39.309Z,71.38
2022-12-23T11:52:13.455Z,85.30
2022-12-23T11:52:54.563Z,64.63
2022-12-23T11:53:27.725Z,70.38
2022-12-23T11:54:01.369Z,83.78
2022-12-23T11:54:36.996Z,85.60
2022-12-23T11:55:23.840Z,94.82
2022-12-23T11:56:04.153Z,58.78
2022-12-23T11:57:19.300Z,75.65
2022-12-23T11:57:52.760Z,55.50
2022-12-23T11:58:26.041Z,61.78
2022-12-23T11:59:06.511Z,77.78
2022-12-23T11:59:40.956Z,83.72
2022-12-23T12:00:20.929Z,69.80
2022-12-23T12:00:59.959Z,51.75
2022-12-23T12:01:33.295Z,60.15
2022-12-23T12:02:16.881Z,73.15
2022-12-23T12:02:52.437Z,54.90
2022-12-23T12:03:34.533Z,59.78
2022-12-23T12:04:09.472Z,51.40
2022-12-23T12:04:42.763Z,61.40
2022-12-23T12:05:23.063Z,61.10
2022-12-23T12:06:34.747Z,74.65
2022-12-23T12:07:12.267Z,86.38
2022-12-23T12:07:48.011Z,57.83
2022-12-23T12:08:24.879Z,72.18
2022-12-23T12:09:03.190Z,54.67
2022-12-23T12:09:41.464Z,76.53
2022-12-23T12:10:21.693Z,71.20
2022-12-23T12:10:59.862Z,67.15
2022-12-23T12:11:40.634Z,59.55
2022-12-23T12:12:16.868Z,65.93
2022-12-23T12:12:55.188Z,66.30
2022-12-23T12:13:31.136Z,82.63
2022-12-23T12:14:07.755Z,70.13
2022-12-23T12:14:43.943Z,60.42
2022-12-23T12:15:32.277Z,91.00
2022-12-23T12:16:17.323Z,88.82
2022-12-23T12:16:56.574Z,93.75
2022-12-23T12:17:38.712Z,85.63
2022-12-23T12:18:14.870Z,82.35
2022-12-23T12:18:55.490Z,97.45
2022-12-23T12:19:36.785Z,80.57
2022-12-23T12:20:14.706Z,72.72
2022-12-23T12:20:54.408Z,62.03
2022-12-23T12:21:31.583Z,71.00
2022-12-23T12:22:17.070Z,87.07
2022-12-23T12:22:52.643Z,101.57
2022-12-23T12:23:32.744Z,90.78
2022-12-23T12:24:18.928Z,63.50
2022-12-23T12:24:58.332Z,70.22
2022-12-23T12:25:39.912Z,83.10
2022-12-23T12:26:23.091Z,80.28
2022-12-23T12:27:00.858Z,75.45
2022-12-23T12:27:38.077Z,73.03
2022-12-23T12:28:16.441Z,80.82
2022-12-23T12:28:56.887Z,93.32
2022-12-23T12:30:11.368Z,78.50
2022-12-23T12:30:53.149Z,70.22
2022-12-23T12:31:30.193Z,72.07
2022-12-23T12:32:06.819Z,109.97
2022-12-23T12:32:47.297Z,67.95
2022-12-23T12:34:05.293Z,89.38
2022-12-23T12:34:46.740Z,70.10
2022-12-23T12:35:27.348Z,85.65
2022-12-23T12:36:14.171Z,76.85
2022-12-23T12:36:50.958Z,74.57
2022-12-23T12:37:36.244Z,79.03
2022-12-23T12:38:17.360Z,71.32
2022-12-23T12:38:53.430Z,63.22
2022-12-23T12:39:31.192Z,79.55
2022-12-23T12:40:26.103Z,81.13
2022-12-23T12:41:01.793Z,83.38
2022-12-23T12:41:41.087Z,66.45
2022-12-23T12:42:17.459Z,101.32
2022-12-23T12:42:56.957Z,80.85
2022-12-23T12:43:34.264Z,75.75
2022-12-23T12:44:20.878Z,82.07
2022-12-23T12:45:01.268Z,104.95
2022-12-23T12:46:27.530Z,73.90
2022-12-23T12:47:28.182Z,74.88
2022-12-23T12:48:18.755Z,61.70
2022-12-23T12:48:57.892Z,83.28
2022-12-23T12:49:41.485Z,120.05
2022-12-23T12:50:17.632Z,78.40
2022-12-23T12:51:02.027Z,62.33
2022-12-23T12:51:40.920Z,81.35
2022-12-23T12:52:18.592Z,56.70
2022-12-23T12:52:54.292Z,89.47
2022-12-23T12:53:28.546Z,87.50
2022-12-23T12:54:07.977Z,74.22
2022-12-23T12:54:45.779Z,66.03
2022-12-23T12:55:28.044Z,56.80
2022-12-23T12:56:07.397Z,61.40
2022-12-23T12:56:49.239Z,62.80
2022-12-23T12:57:23.472Z,66.18
2022-12-23T12:57:55.764Z,59.10
2022-12-23T12:58:31.204Z,67.85
2022-12-23T12:59:03.836Z,66.72
2022-12-23T12:59:38.257Z,73.03
2022-12-23T13:00:19.234Z,64.72
2022-12-23T13:01:13.599Z,74.85
2022-12-23T13:02:18.999Z,64.28
2022-12-23T13:03:18.297Z,69.03
2022-12-23T13:04:10.018Z,85.57
2022-12-23T13:05:08.343Z,71.15
2022-12-23T13:06:04.901Z,100.80
2022-12-23T13:06:44.563Z,83.05
2022-12-23T13:07:28.177Z,75.38
2022-12-23T13:08:18.313Z,76.03
2022-12-23T13:09:04.004Z,57.17
2022-12-23T13:09:53.448Z,57.47
2022-12-23T13:10:37.103Z,65.38
2022-12-23T13:11:22.136Z,76.20
2022-12-23T13:12:14.812Z,56.25
2022-12-23T13:12:57.821Z,88.10
2022-12-23T13:13:42.084Z,71.15
2022-12-23T13:14:26.948Z,64.55
2022-12-23T13:15:05.750Z,59.28
2022-12-23T13:15:49.289Z,68.80
2022-12-23T13:16:32.259Z,64.55
2022-12-23T13:17:15.550Z,73.07
2022-12-23T13:18:04.292Z,63.13
2022-12-23T13:18:46.837Z,63.75
2022-12-23T13:19:31.874Z,85.80
2022-12-23T13:20:19.251Z,90.53
2022-12-23T13:21:00.128Z,78.78
2022-12-23T13:21:45.061Z,69.40
2022-12-23T13:22:18.262Z,65.45
2022-12-23T13:23:20.858Z,74.63
2022-12-23T13:24:05.871Z,65.68
2022-12-23T13:24:51.774Z,69.05
2022-12-23T13:25:32.311Z,70.18
2022-12-23T13:26:14.225Z,67.63
2022-12-23T13:27:06.850Z,78.30
2022-12-23T13:27:47.407Z,81.13
2022-12-23T13:28:35.914Z,88.28
2022-12-23T13:29:46.520Z,97.53
2022-12-23T13:30:21.695Z,72.18
2022-12-23T13:31:04.908Z,65.15
2022-12-23T13:31:48.057Z,75.43
2022-12-23T13:32:33.753Z,90.03
2022-12-23T13:33:25.867Z,101.22
2022-12-23T13:34:07.411Z,82.13
2022-12-23T13:34:49.902Z,75.60
2022-12-23T13:35:57.319Z,93.45
2022-12-23T13:36:42.067Z,85.35
2022-12-23T13:37:28.542Z,82.25
2022-12-23T13:38:11.575Z,85.82
2022-12-23T13:38:56.991Z,113.47
2022-12-23T13:39:43.075Z,93.85
2022-12-23T13:40:31.737Z,112.60
2022-12-23T13:41:09.248Z,107.03
2022-12-23T13:41:48.066Z,77.90
2022-12-23T13:42:27.686Z,111.13
2022-12-23T13:43:07.496Z,108.88
2022-12-23T13:43:46.721Z,87.95
2022-12-23T13:44:22.252Z,94.10
2022-12-23T13:44:55.660Z,117.65
2022-12-23T13:45:34.116Z,111.32
2022-12-23T13:46:15.390Z,107.95
2022-12-23T13:46:59.485Z,102.90
2022-12-23T13:47:47.336Z,84.30
2022-12-23T13:48:33.681Z,97.43
2022-12-23T13:49:17.607Z,96.20
2022-12-23T13:49:57.958Z,88.20
2022-12-23T13:51:17.825Z,102.00
2022-12-23T13:51:58.027Z,72.30
2022-12-23T13:52:43.947Z,66.60
2022-12-23T13:53:24.039Z,105.20
2022-12-23T13:54:04.782Z,76.15
2022-12-23T13:54:52.551Z,79.35
2022-12-23T13:55:44.537Z,99.53
2022-12-23T13:56:27.979Z,62.60
2022-12-23T13:57:08.647Z,72.78
2022-12-23T13:57:50.828Z,90.88
2022-12-23T13:58:26.752Z,74.55
2022-12-23T13:59:02.365Z,96.72
2022-12-23T13:59:40.198Z,105.10
2022-12-23T14:00:30.487Z,80.68
2022-12-23T14:01:22.718Z,85.93
2022-12-23T14:01:57.492Z,76.65
2022-12-23T14:02:48.424Z,99.40
2022-12-23T14:03:27.254Z,98.13
2022-12-23T14:04:30.832Z,117.47
2022-12-23T14:05:13.118Z,91.07
2022-12-23T14:05:51.953Z,93.45
2022-12-23T14:06:45.861Z,95.90
2022-12-23T14:07:20.943Z,95.40
2022-12-23T14:07:54.621Z,89.75
2022-12-23T14:08:36.171Z,92.07
2022-12-23T14:09:15.845Z,75.85
2022-12-23T14:09:54.905Z,116.43
2022-12-23T14:10:28.076Z,89.53
2022-12-23T14:11:02.912Z,98.88